African Loon — 3EFF9 — position and weather

sailwx.info

Track history (hours):
 
Tides and Currents Weather Stations Pressure Air Temp Water Temp Dewpoint Dewpoint Depression Visibility Wind Speed Wind Dir Waves Ship Positions

African Loon

Last reported at 2017-Feb-20 04:21 UTC. Time now 2017-Mar-24 21:51 UTC.
Position N 09°11' W 079°52'.
Warning: this ship's position is 32 days out of date.

Length 200 m; draft 10.4 m.

Type: Cargo ship. MMSI: 374319000.

Date/timePositionNaut miles runAvg speedWind from/ knotsBaromVisibWave heightAir tempDewpointWater temp
2017-Feb-20 04:21N 09°11' W 079°52'6 8.0
2017-Feb-20 03:33N 09°16' W 079°55'0 0.3
2017-Feb-20 02:33N 09°16' W 079°55'0 0.4
2017-Feb-20 01:33N 09°17' W 079°55'1 0.7
2017-Feb-20 00:33N 09°18' W 079°55'4 3.8
2017-Feb-19 23:33N 09°21' W 079°55'1 1.4
2017-Feb-19 22:29N 09°23' W 079°56'0 0.0
2017-Feb-19 21:32N 09°23' W 079°56'0 0.0
2017-Feb-19 20:32N 09°23' W 079°56'0 0.0
2017-Feb-19 19:32N 09°23' W 079°56'0 0.0
2017-Feb-19 18:29N 09°23' W 079°56'0 0.0
2017-Feb-19 17:29N 09°23' W 079°56'0 0.0
2017-Feb-19 16:32N 09°23' W 079°56'0 0.1
2017-Feb-19 15:32N 09°23' W 079°56'0 0.3
2017-Feb-19 14:33N 09°23' W 079°56'4 3.6
2017-Feb-19 13:33N 09°26' W 079°55'1 1.4
2017-Feb-19 12:33N 09°25' W 079°56'0 0.0
2017-Feb-19 11:33N 09°25' W 079°56'0 0.1
2017-Feb-19 10:33N 09°25' W 079°56'0 0.0
2017-Feb-19 09:33N 09°25' W 079°56'0 0.0
2017-Feb-19 08:33N 09°25' W 079°56'0 0.0
2017-Feb-19 07:33N 09°25' W 079°56'0 0.0
2017-Feb-19 06:33N 09°25' W 079°56'0 0.0
2017-Feb-19 05:33N 09°25' W 079°56'0 0.0
2017-Feb-19 04:33N 09°25' W 079°56'0 0.0
2017-Feb-19 03:33N 09°25' W 079°56'0 0.0
2017-Feb-19 02:33N 09°25' W 079°56'0 0.0
2017-Feb-19 01:33N 09°25' W 079°56'0 0.0
2017-Feb-19 00:30N 09°25' W 079°56'0 0.0
2017-Feb-18 23:33N 09°25' W 079°56'0 0.0
2017-Feb-18 22:33N 09°25' W 079°56'0 0.0
2017-Feb-18 21:33N 09°25' W 079°56'0 0.0
2017-Feb-18 20:33N 09°25' W 079°56'0 0.0
2017-Feb-18 19:33N 09°25' W 079°56'0 0.0
2017-Feb-18 18:33N 09°25' W 079°56'0 0.1
2017-Feb-18 17:27N 09°25' W 079°56'0 0.0
2017-Feb-18 16:33N 09°25' W 079°56'0 0.0
2017-Feb-18 15:33N 09°25' W 079°56'0 0.0
2017-Feb-18 14:33N 09°25' W 079°56'0 0.0
2017-Feb-18 13:33N 09°25' W 079°56'0 0.1
2017-Feb-18 12:33N 09°25' W 079°57'0 0.0
2017-Feb-18 11:33N 09°25' W 079°57'0 0.0
2017-Feb-18 10:27N 09°25' W 079°57'0 0.0
2017-Feb-18 09:24N 09°25' W 079°57'0 0.0
2017-Feb-18 08:33N 09°25' W 079°57'0 0.0
2017-Feb-18 07:30N 09°25' W 079°57'0 0.0
2017-Feb-18 06:33N 09°25' W 079°57'0 0.0
2017-Feb-18 05:33N 09°25' W 079°57'0 0.0
2017-Feb-18 04:33N 09°25' W 079°57'0 0.0
2017-Feb-18 03:33N 09°25' W 079°57'0 0.0
2017-Feb-18 02:33N 09°25' W 079°57'0 0.1
2017-Feb-18 01:33N 09°25' W 079°57'0 0.0
2017-Feb-18 00:33N 09°25' W 079°57'0 0.0
2017-Feb-17 23:33N 09°25' W 079°57'0 0.1
2017-Feb-17 22:33N 09°25' W 079°57'0 0.2
2017-Feb-17 21:33N 09°25' W 079°56'0 0.1
2017-Feb-17 20:34N 09°25' W 079°56'5 5.3
2017-Feb-17 19:34N 09°30' W 079°54'  
2017-Feb-11 07:33N 36°55' W 075°56'1211.7
2017-Feb-11 06:32N 36°59' W 076°10'9 9.4
2017-Feb-11 05:34N 36°55' W 076°20'2 2.3
2017-Feb-11 04:32N 36°53' W 076°20'0 0.0
2017-Feb-11 03:29N 36°53' W 076°20'0 0.0
2017-Feb-11 02:29N 36°53' W 076°20'0 0.0
2017-Feb-11 01:32N 36°53' W 076°20'0 0.0
2017-Feb-11 00:32N 36°53' W 076°20'0 0.0
2017-Feb-10 23:32N 36°53' W 076°20'0 0.0
2017-Feb-10 22:32N 36°53' W 076°20'0 0.0
2017-Feb-10 21:32N 36°53' W 076°20'0 0.0
2017-Feb-10 20:32N 36°53' W 076°20'0 0.0
2017-Feb-10 19:32N 36°53' W 076°20'0 0.0
2017-Feb-10 18:32N 36°53' W 076°20'0 0.0
2017-Feb-10 17:32N 36°53' W 076°20'0 0.0
2017-Feb-10 16:32N 36°53' W 076°20'0 0.0
2017-Feb-10 15:29N 36°53' W 076°20'0 0.0
2017-Feb-10 14:32N 36°53' W 076°20'0 0.0
2017-Feb-10 13:32N 36°53' W 076°20'0 0.0
2017-Feb-10 12:32N 36°53' W 076°20'0 0.0
2017-Feb-10 11:32N 36°53' W 076°20'0 0.0
2017-Feb-10 10:32N 36°53' W 076°20'0 0.0
2017-Feb-10 09:32N 36°53' W 076°20'0 0.0
2017-Feb-10 08:32N 36°53' W 076°20'0 0.0
2017-Feb-10 07:32N 36°53' W 076°20'0 0.0
2017-Feb-10 06:32N 36°53' W 076°20'0 0.0
2017-Feb-10 05:32N 36°53' W 076°20'0 0.0
2017-Feb-10 04:32N 36°53' W 076°20'  
Track history (hours):
 
Tides and Currents Weather Stations Pressure Air Temp Water Temp Dewpoint Dewpoint Depression Visibility Wind Speed Wind Dir Waves Ship Positions

African Loon

Last reported at 2017-Feb-20 04:21 UTC. Time now 2017-Mar-24 21:51 UTC.
Position N 09°11' W 079°52'.
Warning: this ship's position is 32 days out of date.

Length 200 m; draft 10.4 m.

Type: Cargo ship. MMSI: 374319000.

Date/timePositionNaut miles runAvg speedWind from/ knotsBaromVisibWave heightAir tempDewpointWater temp
2017-Feb-20 04:21N 09°11' W 079°52'6 8.0
2017-Feb-20 03:33N 09°16' W 079°55'0 0.3
2017-Feb-20 02:33N 09°16' W 079°55'0 0.4
2017-Feb-20 01:33N 09°17' W 079°55'1 0.7
2017-Feb-20 00:33N 09°18' W 079°55'4 3.8
2017-Feb-19 23:33N 09°21' W 079°55'1 1.4
2017-Feb-19 22:29N 09°23' W 079°56'0 0.0
2017-Feb-19 21:32N 09°23' W 079°56'0 0.0
2017-Feb-19 20:32N 09°23' W 079°56'0 0.0
2017-Feb-19 19:32N 09°23' W 079°56'0 0.0
2017-Feb-19 18:29N 09°23' W 079°56'0 0.0
2017-Feb-19 17:29N 09°23' W 079°56'0 0.0
2017-Feb-19 16:32N 09°23' W 079°56'0 0.1
2017-Feb-19 15:32N 09°23' W 079°56'0 0.3
2017-Feb-19 14:33N 09°23' W 079°56'4 3.6
2017-Feb-19 13:33N 09°26' W 079°55'1 1.4
2017-Feb-19 12:33N 09°25' W 079°56'0 0.0
2017-Feb-19 11:33N 09°25' W 079°56'0 0.1
2017-Feb-19 10:33N 09°25' W 079°56'0 0.0
2017-Feb-19 09:33N 09°25' W 079°56'0 0.0
2017-Feb-19 08:33N 09°25' W 079°56'0 0.0
2017-Feb-19 07:33N 09°25' W 079°56'0 0.0
2017-Feb-19 06:33N 09°25' W 079°56'0 0.0
2017-Feb-19 05:33N 09°25' W 079°56'0 0.0
2017-Feb-19 04:33N 09°25' W 079°56'0 0.0
2017-Feb-19 03:33N 09°25' W 079°56'0 0.0
2017-Feb-19 02:33N 09°25' W 079°56'0 0.0
2017-Feb-19 01:33N 09°25' W 079°56'0 0.0
2017-Feb-19 00:30N 09°25' W 079°56'0 0.0
2017-Feb-18 23:33N 09°25' W 079°56'0 0.0
2017-Feb-18 22:33N 09°25' W 079°56'0 0.0
2017-Feb-18 21:33N 09°25' W 079°56'0 0.0
2017-Feb-18 20:33N 09°25' W 079°56'0 0.0
2017-Feb-18 19:33N 09°25' W 079°56'0 0.0
2017-Feb-18 18:33N 09°25' W 079°56'0 0.1
2017-Feb-18 17:27N 09°25' W 079°56'0 0.0
2017-Feb-18 16:33N 09°25' W 079°56'0 0.0
2017-Feb-18 15:33N 09°25' W 079°56'0 0.0
2017-Feb-18 14:33N 09°25' W 079°56'0 0.0
2017-Feb-18 13:33N 09°25' W 079°56'0 0.1
2017-Feb-18 12:33N 09°25' W 079°57'0 0.0
2017-Feb-18 11:33N 09°25' W 079°57'0 0.0
2017-Feb-18 10:27N 09°25' W 079°57'0 0.0
2017-Feb-18 09:24N 09°25' W 079°57'0 0.0
2017-Feb-18 08:33N 09°25' W 079°57'0 0.0
2017-Feb-18 07:30N 09°25' W 079°57'0 0.0
2017-Feb-18 06:33N 09°25' W 079°57'0 0.0
2017-Feb-18 05:33N 09°25' W 079°57'0 0.0
2017-Feb-18 04:33N 09°25' W 079°57'0 0.0
2017-Feb-18 03:33N 09°25' W 079°57'0 0.0
2017-Feb-18 02:33N 09°25' W 079°57'0 0.1
2017-Feb-18 01:33N 09°25' W 079°57'0 0.0
2017-Feb-18 00:33N 09°25' W 079°57'0 0.0
2017-Feb-17 23:33N 09°25' W 079°57'0 0.1
2017-Feb-17 22:33N 09°25' W 079°57'0 0.2
2017-Feb-17 21:33N 09°25' W 079°56'0 0.1
2017-Feb-17 20:34N 09°25' W 079°56'5 5.3
2017-Feb-17 19:34N 09°30' W 079°54'  
2017-Feb-11 07:33N 36°55' W 075°56'1211.7
2017-Feb-11 06:32N 36°59' W 076°10'9 9.4
2017-Feb-11 05:34N 36°55' W 076°20'2 2.3
2017-Feb-11 04:32N 36°53' W 076°20'0 0.0
2017-Feb-11 03:29N 36°53' W 076°20'0 0.0
2017-Feb-11 02:29N 36°53' W 076°20'0 0.0
2017-Feb-11 01:32N 36°53' W 076°20'0 0.0
2017-Feb-11 00:32N 36°53' W 076°20'0 0.0
2017-Feb-10 23:32N 36°53' W 076°20'0 0.0
2017-Feb-10 22:32N 36°53' W 076°20'0 0.0
2017-Feb-10 21:32N 36°53' W 076°20'0 0.0
2017-Feb-10 20:32N 36°53' W 076°20'0 0.0
2017-Feb-10 19:32N 36°53' W 076°20'0 0.0
2017-Feb-10 18:32N 36°53' W 076°20'0 0.0
2017-Feb-10 17:32N 36°53' W 076°20'0 0.0
2017-Feb-10 16:32N 36°53' W 076°20'0 0.0
2017-Feb-10 15:29N 36°53' W 076°20'0 0.0
2017-Feb-10 14:32N 36°53' W 076°20'0 0.0
2017-Feb-10 13:32N 36°53' W 076°20'0 0.0
2017-Feb-10 12:32N 36°53' W 076°20'0 0.0
2017-Feb-10 11:32N 36°53' W 076°20'0 0.0
2017-Feb-10 10:32N 36°53' W 076°20'0 0.0
2017-Feb-10 09:32N 36°53' W 076°20'0 0.0
2017-Feb-10 08:32N 36°53' W 076°20'0 0.0
2017-Feb-10 07:32N 36°53' W 076°20'0 0.0
2017-Feb-10 06:32N 36°53' W 076°20'0 0.0
2017-Feb-10 05:32N 36°53' W 076°20'0 0.0
2017-Feb-10 04:32N 36°53' W 076°20'  

Dump ship's entire track history